Alvadore, OR (97409)

6:44 PM PDT on August 03, 2015 (GMT -0700)
Alvadore | | Change Station
CLOSE
Current Station
Personal Weather Station
Location: Eugene, OR
Elevation: 397 ft
Nearby Weather Stations

Elev 397 ft 44.11 °N, 123.27 °W | Updated 2 seconds ago

Mostly Cloudy
Mostly Cloudy
83.8 °F
Feels Like 83 °F
N
4.5
Wind Variable Wind from North
Gusts 7.6 mph

Today
High -- | Low -- °F
--% Chance of Precip.
Yesterday
High -- | Low -- °F
Precip. -- in
6:02 AM 8:34 PM
Waning Gibbous, 82% visible
Pressure 29.87 in
Visibility 10.0 miles
Clouds Scattered Clouds 15000 ft
Mostly Cloudy 25000 ft
Heat Index 83 °F
Dew Point 56 °F
Humidity 39%
Rainfall 0.00 in
Snow Depth Not available.
UV 1 out of 12
Pollen 3.70 out of 12
Air Quality Not available.
Flu Activity Not available.
METAR KEUG 040054Z 36011KT 10SM SCT150 BKN250 31/08 A2988 RMK AO2 SLP114 T03060078

More Conditions Fewer Conditions

Pressure 29.87 in
Visibility 10.0 miles
Clouds Scattered Clouds 15000 ft
Mostly Cloudy 25000 ft
Heat Index 83 °F
Dew Point 56 °F
Humidity 39%
Rainfall 0.00 in
Snow Depth Not available.
UV 1 out of 12
Pollen 3.70 out of 12
Air Quality Not available.
Flu Activity Not available.
METAR KEUG 040054Z 36011KT 10SM SCT150 BKN250 31/08 A2988 RMK AO2 SLP114 T03060078

More Conditions Fewer Conditions

10-Day Weather Forecast

×

Almanac

Astronomy

Aug. 03, 2015 Rise Set
Actual Time
Civil Twilight
Nautical Twilight
Astronomical Twilight
Moon
Length of Visible Light
Length of Day
Tomorrow will be .
, % of the Moon is Illuminated

Today's Extremes

State Highs State Lows

Community

WunderPhotos

Upload Photos

1,843,820 photos uploaded!

WunderBlogs® & News

Nearby

Air Quality

  Air Quality AQ Index Pollutant
Not available.

Snow Depth

Station Depth Elevation

Earthquake Activity

City Distance Mag. Time & Date
Minimum magnitude displayed is 2.5.

Coastal Water Temperatures

Place Temperature

Stations

Nearby Weather Stations

Station Location Temp. Windchill Dew Point Humidity Wind Precip. Elev Updated Type